Long Hua — VRFR5 — position and weather

sailwx.info

Track history (hours):
 
Tides and Currents Weather Stations Pressure Air Temp Water Temp Dewpoint Dewpoint Depression Visibility Wind Speed Wind Dir Waves Ship Positions

Long Hua

Last reported at 2016-Jun-27 17:24 UTC. Time now 2016-Jun-28 11:36 UTC.
Position N 24°36' E 119°20'.

Length 180 m; draft 9.3 m.

Type: Cargo ship. MMSI: 477622800.

Date/timePositionNaut miles runAvg speedWind from/ knotsBaromVisibWave heightAir tempDewpointWater temp
2016-Jun-27 17:24N 24°36' E 119°20'1112.5
2016-Jun-27 16:33N 24°33' E 119°08'2812.7
2016-Jun-27 14:23N 24°24' E 118°40'1012.0
2016-Jun-27 13:32N 24°21' E 118°29'1212.1
2016-Jun-27 12:33N 24°20' E 118°17'1110.6
2016-Jun-27 11:33N 24°24' E 118°06'8 7.5
2016-Jun-27 10:28N 24°32' E 118°05'0 0.0
2016-Jun-27 09:31N 24°32' E 118°05'0 0.0
2016-Jun-27 08:28N 24°32' E 118°05'0 0.0
2016-Jun-27 07:31N 24°32' E 118°05'0 0.0
2016-Jun-27 06:28N 24°32' E 118°05'0 0.0
2016-Jun-27 05:28N 24°32' E 118°05'0 0.0
2016-Jun-27 04:22N 24°32' E 118°05'0 0.0
2016-Jun-27 03:31N 24°32' E 118°05'0 0.0
2016-Jun-27 02:25N 24°32' E 118°05'0 0.0
2016-Jun-27 01:28N 24°32' E 118°05'0 0.0
2016-Jun-27 00:28N 24°32' E 118°05'0 0.0
2016-Jun-26 23:31N 24°32' E 118°05'0 0.0
2016-Jun-26 22:31N 24°32' E 118°05'0 0.0
2016-Jun-26 21:31N 24°32' E 118°05'0 0.0
2016-Jun-26 20:28N 24°32' E 118°05'0 0.0
2016-Jun-26 19:28N 24°32' E 118°05'0 0.0
2016-Jun-26 18:31N 24°32' E 118°05'0 0.0
2016-Jun-26 17:31N 24°32' E 118°05'0 0.0
2016-Jun-26 16:31N 24°32' E 118°05'0 0.0
2016-Jun-26 15:28N 24°32' E 118°05'0 0.0
2016-Jun-26 14:22N 24°32' E 118°05'0 0.0
2016-Jun-26 12:10N 24°32' E 118°05'0 0.0
2016-Jun-26 10:22N 24°32' E 118°05'0 0.0
2016-Jun-26 09:31N 24°32' E 118°05'0 0.0
2016-Jun-26 08:28N 24°32' E 118°05'0 0.0
2016-Jun-26 07:28N 24°32' E 118°05'0 0.0
2016-Jun-26 06:28N 24°32' E 118°05'0 0.0
2016-Jun-26 05:28N 24°32' E 118°05'0 0.0
2016-Jun-26 04:28N 24°32' E 118°05'0 0.0
2016-Jun-26 03:28N 24°32' E 118°05'0 0.0
2016-Jun-26 02:25N 24°32' E 118°05'1 0.7
2016-Jun-26 01:33N 24°32' E 118°05'8 7.9
2016-Jun-26 00:33N 24°24' E 118°06'5 4.4
2016-Jun-25 23:28N 24°21' E 118°10'0 0.1
2016-Jun-25 22:31N 24°21' E 118°10'0 0.0
2016-Jun-25 21:28N 24°21' E 118°10'0 0.1
2016-Jun-25 20:31N 24°21' E 118°10'0 0.1
2016-Jun-25 19:31N 24°22' E 118°10'0 0.0
2016-Jun-25 18:31N 24°22' E 118°10'0 0.1
2016-Jun-25 17:31N 24°22' E 118°10'0 0.0
2016-Jun-25 16:28N 24°22' E 118°10'0 0.0
2016-Jun-25 15:31N 24°22' E 118°10'0 0.1
2016-Jun-25 14:31N 24°22' E 118°10'0 0.0
2016-Jun-25 13:31N 24°21' E 118°10'0 0.0
2016-Jun-25 12:31N 24°21' E 118°10'0 0.0
2016-Jun-25 11:31N 24°22' E 118°10'0 0.0
2016-Jun-25 10:28N 24°22' E 118°10'0 0.1
2016-Jun-25 09:31N 24°22' E 118°10'0 0.0
2016-Jun-25 08:31N 24°22' E 118°10'0 0.1
2016-Jun-25 07:31N 24°22' E 118°10'0 0.0
2016-Jun-25 06:31N 24°22' E 118°10'0 0.5
2016-Jun-25 05:33N 24°22' E 118°11'10 9.6
2016-Jun-25 04:33N 24°20' E 118°21'1111.3
2016-Jun-25 03:33N 24°23' E 118°33'1110.9
2016-Jun-25 02:30N 24°26' E 118°45'  
Track history (hours):
 
Tides and Currents Weather Stations Pressure Air Temp Water Temp Dewpoint Dewpoint Depression Visibility Wind Speed Wind Dir Waves Ship Positions

Long Hua

Last reported at 2016-Jun-27 17:24 UTC. Time now 2016-Jun-28 11:36 UTC.
Position N 24°36' E 119°20'.

Length 180 m; draft 9.3 m.

Type: Cargo ship. MMSI: 477622800.

Date/timePositionNaut miles runAvg speedWind from/ knotsBaromVisibWave heightAir tempDewpointWater temp
2016-Jun-27 17:24N 24°36' E 119°20'1112.5
2016-Jun-27 16:33N 24°33' E 119°08'2812.7
2016-Jun-27 14:23N 24°24' E 118°40'1012.0
2016-Jun-27 13:32N 24°21' E 118°29'1212.1
2016-Jun-27 12:33N 24°20' E 118°17'1110.6
2016-Jun-27 11:33N 24°24' E 118°06'8 7.5
2016-Jun-27 10:28N 24°32' E 118°05'0 0.0
2016-Jun-27 09:31N 24°32' E 118°05'0 0.0
2016-Jun-27 08:28N 24°32' E 118°05'0 0.0
2016-Jun-27 07:31N 24°32' E 118°05'0 0.0
2016-Jun-27 06:28N 24°32' E 118°05'0 0.0
2016-Jun-27 05:28N 24°32' E 118°05'0 0.0
2016-Jun-27 04:22N 24°32' E 118°05'0 0.0
2016-Jun-27 03:31N 24°32' E 118°05'0 0.0
2016-Jun-27 02:25N 24°32' E 118°05'0 0.0
2016-Jun-27 01:28N 24°32' E 118°05'0 0.0
2016-Jun-27 00:28N 24°32' E 118°05'0 0.0
2016-Jun-26 23:31N 24°32' E 118°05'0 0.0
2016-Jun-26 22:31N 24°32' E 118°05'0 0.0
2016-Jun-26 21:31N 24°32' E 118°05'0 0.0
2016-Jun-26 20:28N 24°32' E 118°05'0 0.0
2016-Jun-26 19:28N 24°32' E 118°05'0 0.0
2016-Jun-26 18:31N 24°32' E 118°05'0 0.0
2016-Jun-26 17:31N 24°32' E 118°05'0 0.0
2016-Jun-26 16:31N 24°32' E 118°05'0 0.0
2016-Jun-26 15:28N 24°32' E 118°05'0 0.0
2016-Jun-26 14:22N 24°32' E 118°05'0 0.0
2016-Jun-26 12:10N 24°32' E 118°05'0 0.0
2016-Jun-26 10:22N 24°32' E 118°05'0 0.0
2016-Jun-26 09:31N 24°32' E 118°05'0 0.0
2016-Jun-26 08:28N 24°32' E 118°05'0 0.0
2016-Jun-26 07:28N 24°32' E 118°05'0 0.0
2016-Jun-26 06:28N 24°32' E 118°05'0 0.0
2016-Jun-26 05:28N 24°32' E 118°05'0 0.0
2016-Jun-26 04:28N 24°32' E 118°05'0 0.0
2016-Jun-26 03:28N 24°32' E 118°05'0 0.0
2016-Jun-26 02:25N 24°32' E 118°05'1 0.7
2016-Jun-26 01:33N 24°32' E 118°05'8 7.9
2016-Jun-26 00:33N 24°24' E 118°06'5 4.4
2016-Jun-25 23:28N 24°21' E 118°10'0 0.1
2016-Jun-25 22:31N 24°21' E 118°10'0 0.0
2016-Jun-25 21:28N 24°21' E 118°10'0 0.1
2016-Jun-25 20:31N 24°21' E 118°10'0 0.1
2016-Jun-25 19:31N 24°22' E 118°10'0 0.0
2016-Jun-25 18:31N 24°22' E 118°10'0 0.1
2016-Jun-25 17:31N 24°22' E 118°10'0 0.0
2016-Jun-25 16:28N 24°22' E 118°10'0 0.0
2016-Jun-25 15:31N 24°22' E 118°10'0 0.1
2016-Jun-25 14:31N 24°22' E 118°10'0 0.0
2016-Jun-25 13:31N 24°21' E 118°10'0 0.0
2016-Jun-25 12:31N 24°21' E 118°10'0 0.0
2016-Jun-25 11:31N 24°22' E 118°10'0 0.0
2016-Jun-25 10:28N 24°22' E 118°10'0 0.1
2016-Jun-25 09:31N 24°22' E 118°10'0 0.0
2016-Jun-25 08:31N 24°22' E 118°10'0 0.1
2016-Jun-25 07:31N 24°22' E 118°10'0 0.0
2016-Jun-25 06:31N 24°22' E 118°10'0 0.5
2016-Jun-25 05:33N 24°22' E 118°11'10 9.6
2016-Jun-25 04:33N 24°20' E 118°21'1111.3
2016-Jun-25 03:33N 24°23' E 118°33'1110.9
2016-Jun-25 02:30N 24°26' E 118°45'  

Dump ship's entire track history